Time;durP1;ratioP1;P1;durP2;ratioP2;P2;SDS_P1;SDS_P2;PMS_P1;PMS_P2;Temp;Humidity;BMP_temperature;BMP_pressure;BME280_temperature;BME280_humidity;BME280_pressure;Samples;Min_cycle;Max_cycle;Signal;HPM_P1;HPM_P2
2022/06/24 00:01:27;;;;;;;97.65;16.27;;;20.20;99.90;;;19.58;100.00;96853.50;5049855;28;20401;-70
2022/06/24 00:03:53;;;;;;;25.48;9.70;;;20.20;99.90;;;19.59;100.00;96847.03;5050174;28;20412;-70
2022/06/24 00:06:19;;;;;;;23.35;9.32;;;20.20;99.90;;;19.63;100.00;96853.31;5050096;28;20409;-71
2022/06/24 00:08:56;;;;;;;49.53;12.60;;;20.20;99.90;;;19.61;100.00;96859.03;5049430;28;20397;-70
2022/06/24 00:11:25;;;;;;;24.90;10.23;;;20.20;99.90;;;19.58;100.00;96854.31;5049759;28;20409;-70
2022/06/24 00:13:51;;;;;;;24.33;9.65;;;20.20;99.90;;;19.51;100.00;96851.31;5049901;28;21024;-70
2022/06/24 00:16:17;;;;;;;29.65;10.68;;;20.20;99.90;;;19.37;100.00;96852.59;5050121;28;20790;-70
2022/06/24 00:18:44;;;;;;;31.03;10.87;;;20.10;99.90;;;19.40;100.00;96860.78;5049201;28;20763;-70
2022/06/24 00:21:14;;;;;;;27.23;10.25;;;20.10;99.90;;;19.41;100.00;96845.47;5049592;28;20404;-70
2022/06/24 00:23:40;;;;;;;31.42;11.10;;;20.10;99.90;;;19.32;100.00;96848.22;5049723;28;20471;-70
2022/06/24 00:26:06;;;;;;;39.90;11.05;;;20.00;99.90;;;19.30;100.00;96842.38;5049025;28;20424;-70
2022/06/24 00:28:34;;;;;;;45.10;12.48;;;20.00;99.90;;;19.24;100.00;96851.69;5048487;28;20408;-70
2022/06/24 00:31:03;;;;;;;104.78;18.58;;;19.90;99.90;;;19.22;100.00;96843.19;5049154;28;20437;-71
2022/06/24 00:33:35;;;;;;;53.13;12.65;;;19.90;99.90;;;19.22;100.00;96840.50;5049485;28;20417;-71
2022/06/24 00:36:01;;;;;;;36.40;10.85;;;20.00;99.90;;;19.25;100.00;96842.53;5049645;28;20454;-71
2022/06/24 00:38:30;;;;;;;58.08;13.15;;;20.00;99.90;;;19.28;100.00;96839.22;5049144;28;20394;-71
2022/06/24 00:41:00;;;;;;;20.58;9.07;;;20.00;99.90;;;19.26;100.00;96836.06;5049328;28;20413;-71
2022/06/24 00:43:31;;;;;;;64.72;16.27;;;20.00;99.90;;;19.23;100.00;96840.19;5049670;28;20402;-71
2022/06/24 00:46:08;;;;;;;107.93;18.50;;;19.90;99.90;;;19.23;100.00;96826.75;5049350;28;20873;-71
2022/06/24 00:48:38;;;;;;;138.13;19.95;;;19.90;99.90;;;19.25;100.00;96815.69;5048993;28;20401;-71
2022/06/24 00:51:07;;;;;;;54.28;12.85;;;19.90;99.90;;;19.30;100.00;96810.94;5049246;28;20397;-71
2022/06/24 00:53:44;;;;;;;39.65;12.45;;;19.90;99.90;;;19.25;100.00;96808.44;5049507;28;20444;-71
2022/06/24 00:56:13;;;;;;;26.63;11.70;;;19.90;99.90;;;19.28;100.00;96821.22;5049374;28;20404;-70
2022/06/24 00:58:39;;;;;;;29.05;11.48;;;19.90;99.90;;;19.21;100.00;96828.19;5048913;28;20404;-70
2022/06/24 01:01:07;;;;;;;29.40;11.67;;;19.90;99.90;;;19.08;100.00;96829.16;5049129;28;20433;-71
2022/06/24 01:03:37;;;;;;;30.43;11.83;;;19.70;99.90;;;18.93;100.00;96827.78;5049677;28;20393;-71
2022/06/24 01:06:04;;;;;;;24.75;10.43;;;19.60;99.90;;;18.89;100.00;96818.78;5049345;28;20412;-71
2022/06/24 01:08:29;;;;;;;28.33;11.93;;;19.60;99.90;;;18.80;100.00;96816.09;5048934;28;20413;-71
2022/06/24 01:10:55;;;;;;;25.70;11.20;;;19.50;99.90;;;18.78;100.00;96812.19;5049158;28;20471;-71
2022/06/24 01:13:23;;;;;;;30.88;11.90;;;19.50;99.90;;;18.76;100.00;96798.28;5048056;28;20779;-70
2022/06/24 01:15:49;;;;;;;25.60;11.27;;;19.50;99.90;;;18.75;100.00;96794.81;5049199;28;20459;-71
2022/06/24 01:18:17;;;;;;;29.70;11.63;;;19.40;99.90;;;18.73;100.00;96790.88;5047867;28;20401;-71
2022/06/24 01:20:43;;;;;;;55.75;16.00;;;19.50;99.90;;;18.72;100.00;96786.63;5049045;28;20433;-70
2022/06/24 01:23:10;;;;;;;34.42;14.73;;;19.50;99.90;;;18.72;100.00;96795.44;5049243;28;20402;-70
2022/06/24 01:25:36;;;;;;;41.30;15.25;;;19.40;99.90;;;18.73;100.00;96790.88;5049253;28;20871;-71
2022/06/24 01:28:02;;;;;;;43.65;14.82;;;19.40;99.90;;;18.60;100.00;96781.13;5048600;28;20405;-70
2022/06/24 01:30:28;;;;;;;59.80;17.93;;;19.40;99.90;;;18.70;100.00;96776.22;5049045;28;20459;-71
2022/06/24 01:32:55;;;;;;;62.75;18.00;;;19.40;99.90;;;18.59;100.00;96766.13;5049049;28;20417;-71
2022/06/24 01:35:21;;;;;;;64.85;20.17;;;19.40;99.90;;;18.67;100.00;96776.84;5049214;28;20432;-71
2022/06/24 01:37:47;;;;;;;41.58;16.83;;;19.40;99.90;;;18.65;100.00;96788.97;5050619;28;20833;-71
2022/06/24 01:40:14;;;;;;;46.80;20.00;;;19.30;99.90;;;18.48;100.00;96795.13;5052076;28;20398;-72
2022/06/24 01:42:41;;;;;;;49.92;19.55;;;19.10;99.90;;;18.40;100.00;96795.91;5052893;28;20440;-71
2022/06/24 01:45:08;;;;;;;58.30;21.65;;;19.00;99.90;;;18.42;100.00;96782.97;5052705;28;20402;-71
2022/06/24 01:47:34;;;;;;;48.85;20.35;;;19.10;99.90;;;18.38;100.00;96774.00;5052645;28;20397;-71
2022/06/24 01:50:00;;;;;;;44.17;18.05;;;19.00;99.90;;;18.27;100.00;96784.22;5051819;28;20921;-71
2022/06/24 01:52:26;;;;;;;47.10;18.70;;;19.00;99.90;;;18.32;100.00;96778.75;5052226;28;20420;-71
2022/06/24 01:54:51;;;;;;;43.77;18.07;;;19.00;99.90;;;18.32;100.00;96786.00;5052394;28;20496;-72
2022/06/24 01:57:19;;;;;;;41.70;17.58;;;18.90;99.90;;;18.24;100.00;96784.09;5052581;28;20429;-71
2022/06/24 01:59:45;;;;;;;36.53;16.92;;;18.90;99.90;;;18.22;100.00;96776.34;5051914;28;20401;-71
2022/06/24 02:02:10;;;;;;;44.47;17.92;;;18.80;99.90;;;18.25;100.00;96774.94;5052268;28;20405;-71
2022/06/24 02:04:36;;;;;;;38.60;17.23;;;18.90;99.90;;;18.22;100.00;96784.41;5052254;28;20412;-71
2022/06/24 02:07:03;;;;;;;35.80;17.33;;;18.90;99.90;;;18.26;100.00;96780.00;5052383;28;20547;-71
2022/06/24 02:09:28;;;;;;;40.58;16.98;;;19.00;99.90;;;18.28;100.00;96771.63;5051577;28;20494;-71
2022/06/24 02:14:40;;;;;;;34.38;15.77;;;19.00;99.90;;;18.37;100.00;96761.69;5050918;28;20397;-71
2022/06/24 02:17:07;;;;;;;34.65;15.88;;;19.10;99.90;;;18.34;100.00;96765.03;5052201;28;20436;-71
2022/06/24 02:19:33;;;;;;;37.53;15.75;;;19.10;99.90;;;18.30;100.00;96767.53;5051460;28;20401;-71
2022/06/24 02:21:58;;;;;;;37.08;15.95;;;19.10;99.90;;;18.29;100.00;96768.63;5051912;28;20413;-71
2022/06/24 02:24:25;;;;;;;30.88;15.40;;;19.10;99.90;;;18.27;100.00;96767.41;5051321;28;20938;-71
2022/06/24 02:26:50;;;;;;;33.38;15.45;;;19.00;99.90;;;18.24;100.00;96770.69;5051988;28;20409;-71
2022/06/24 02:29:16;;;;;;;33.90;15.70;;;19.00;99.90;;;18.22;100.00;96762.97;5051407;28;20488;-71
2022/06/24 02:31:44;;;;;;;48.07;17.70;;;19.00;99.90;;;18.14;100.00;96755.72;5051849;28;20397;-71
2022/06/24 02:34:10;;;;;;;66.97;19.02;;;18.90;99.90;;;18.10;100.00;96762.81;5051408;28;20516;-70
2022/06/24 02:36:36;;;;;;;45.97;18.05;;;18.80;99.90;;;18.08;100.00;96762.34;5051793;28;20886;-70
2022/06/24 02:39:02;;;;;;;35.07;15.70;;;18.80;99.90;;;18.01;100.00;96762.81;5051177;28;20566;-70
2022/06/24 02:41:28;;;;;;;39.72;16.27;;;18.70;99.90;;;17.97;100.00;96751.13;5051465;28;20759;-71
2022/06/24 02:43:54;;;;;;;38.08;17.23;;;18.70;99.90;;;17.99;100.00;96756.97;5051697;28;20394;-70
2022/06/24 02:46:20;;;;;;;42.33;17.90;;;18.70;99.90;;;17.91;100.00;96756.94;5051561;28;20902;-71
2022/06/24 02:48:47;;;;;;;36.30;17.08;;;18.60;99.90;;;17.86;100.00;96757.91;5050528;28;20420;-70
2022/06/24 02:51:15;;;;;;;41.87;17.53;;;18.60;99.90;;;17.84;100.00;96764.66;5049775;28;20795;-71
2022/06/24 02:53:43;;;;;;;46.85;16.92;;;18.60;99.90;;;17.77;100.00;96765.91;5051192;28;20425;-71
2022/06/24 02:56:11;;;;;;;42.10;17.00;;;18.50;99.90;;;17.76;100.00;96768.88;5051322;28;20401;-70
2022/06/24 02:58:39;;;;;;;42.22;17.77;;;18.50;99.90;;;17.69;100.00;96765.88;5050745;28;20401;-70
2022/06/24 03:01:05;;;;;;;40.33;16.98;;;18.40;99.90;;;17.59;100.00;96763.50;5051161;28;20819;-70
2022/06/24 03:03:32;;;;;;;38.88;16.00;;;18.30;99.90;;;17.58;100.00;96765.38;5050809;28;20455;-70
2022/06/24 03:06:00;;;;;;;37.70;16.20;;;18.30;99.90;;;17.58;100.00;96762.69;5051221;28;20393;-70
2022/06/24 03:08:27;;;;;;;46.43;17.77;;;18.30;99.90;;;17.64;100.00;96758.00;5050636;28;20494;-70
2022/06/24 03:10:53;;;;;;;43.40;18.23;;;18.30;99.90;;;17.61;100.00;96756.72;5050886;28;20816;-70
2022/06/24 03:13:19;;;;;;;46.65;18.40;;;18.30;99.90;;;17.52;100.00;96760.44;5051081;28;20413;-70
2022/06/24 03:15:48;;;;;;;34.67;15.93;;;18.30;99.90;;;17.47;100.00;96760.59;5051110;28;20495;-70
2022/06/24 03:18:14;;;;;;;41.58;17.10;;;18.20;99.90;;;17.52;100.00;96761.25;5050502;28;20401;-70
2022/06/24 03:20:41;;;;;;;43.03;17.98;;;18.20;99.90;;;17.39;100.00;96757.59;5050725;28;20763;-70
2022/06/24 03:23:08;;;;;;;41.97;16.45;;;18.10;99.90;;;17.36;100.00;96766.25;5050846;28;20468;-70
2022/06/24 03:25:34;;;;;;;41.13;16.75;;;18.10;99.90;;;17.34;100.00;96747.03;5050749;28;20895;-70
2022/06/24 03:28:04;;;;;;;34.38;15.32;;;18.10;99.90;;;17.29;100.00;96751.75;5050831;28;20954;-70
2022/06/24 03:30:31;;;;;;;37.83;16.40;;;18.10;99.90;;;17.30;100.00;96745.28;5050484;28;20406;-71
2022/06/24 03:32:57;;;;;;;33.88;15.35;;;18.00;99.90;;;17.29;100.00;96746.41;5050694;28;20417;-71
2022/06/24 03:35:23;;;;;;;34.63;15.45;;;18.00;99.90;;;17.32;100.00;96743.88;5050597;28;20476;-71
2022/06/24 03:37:49;;;;;;;35.60;16.05;;;18.00;99.90;;;17.28;100.00;96748.28;5050644;28;20398;-71
2022/06/24 03:40:16;;;;;;;33.07;16.17;;;18.00;99.90;;;17.26;100.00;96753.13;5049725;28;20468;-70
2022/06/24 03:42:42;;;;;;;34.88;16.33;;;18.00;99.90;;;17.25;100.00;96748.88;5050526;28;20913;-71
2022/06/24 03:45:09;;;;;;;40.33;17.70;;;18.00;99.90;;;17.28;100.00;96758.19;5050383;28;20492;-71
2022/06/24 03:47:35;;;;;;;40.75;18.05;;;18.00;99.90;;;17.22;100.00;96746.81;5047763;28;20421;-72
2022/06/24 03:50:01;;;;;;;37.90;16.83;;;18.00;99.90;;;17.22;100.00;96749.50;5045345;28;20413;-72
2022/06/24 03:52:26;;;;;;;34.93;16.67;;;17.90;99.90;;;17.17;100.00;96740.81;5054713;28;20418;-72
2022/06/24 03:54:52;;;;;;;41.75;18.10;;;17.90;99.90;;;17.17;100.00;96738.16;5058077;28;20453;-71
2022/06/24 03:57:20;;;;;;;36.85;17.63;;;17.90;99.90;;;17.15;100.00;96743.00;5059777;28;20401;-69
2022/06/24 03:59:46;;;;;;;36.40;17.30;;;17.90;99.90;;;17.14;100.00;96742.22;5056951;28;21047;-72
2022/06/24 04:02:12;;;;;;;35.08;15.50;;;17.90;99.90;;;17.12;100.00;96743.63;5058813;28;20407;-70
2022/06/24 04:04:38;;;;;;;30.90;15.60;;;17.90;99.90;;;17.12;100.00;96746.31;5055318;28;20417;-71
2022/06/24 04:07:04;;;;;;;34.47;16.58;;;17.80;99.90;;;17.12;100.00;96739.09;5060000;28;20449;-72
2022/06/24 04:09:30;;;;;;;32.88;16.65;;;17.90;99.90;;;17.10;100.00;96745.81;5065775;28;20438;-71
2022/06/24 04:11:56;;;;;;;32.67;16.40;;;17.80;99.90;;;17.09;100.00;96747.72;5057486;28;20415;-72
2022/06/24 04:17:08;;;;;;;36.13;17.42;;;17.80;99.90;;;17.09;100.00;96741.56;5069326;28;20414;-72
2022/06/24 04:19:35;;;;;;;32.97;16.67;;;17.70;99.90;;;17.10;100.00;96735.13;5060236;28;20410;-71
2022/06/24 04:22:01;;;;;;;33.15;16.77;;;17.70;99.90;;;17.12;100.00;96738.28;5058659;28;20433;-72
2022/06/24 04:24:27;;;;;;;31.05;15.95;;;17.70;99.90;;;16.97;100.00;96742.94;5049686;28;20405;-71
2022/06/24 04:26:53;;;;;;;33.97;16.77;;;17.60;99.90;;;17.06;100.00;96744.88;5049746;28;20405;-71
2022/06/24 04:29:19;;;;;;;33.88;15.88;;;17.70;99.90;;;17.09;100.00;96746.91;5049195;28;20451;-71
2022/06/24 04:31:46;;;;;;;31.43;16.03;;;17.70;99.90;;;17.12;100.00;96746.31;5049655;28;20432;-72
2022/06/24 04:34:12;;;;;;;29.10;15.77;;;17.70;99.90;;;17.15;100.00;96743.78;5048971;28;20409;-71
2022/06/24 04:36:38;;;;;;;30.77;15.98;;;17.70;99.90;;;17.21;100.00;96747.94;5049716;28;20400;-71
2022/06/24 04:39:04;;;;;;;31.85;16.33;;;17.80;99.90;;;17.27;100.00;96749.38;5049146;28;20451;-71
2022/06/24 04:41:30;;;;;;;32.42;16.98;;;17.90;99.90;;;17.32;100.00;96753.78;5048093;28;20520;-71
2022/06/24 04:43:56;;;;;;;34.30;17.23;;;18.00;99.90;;;17.32;100.00;96753.78;5043433;28;20767;-71
2022/06/24 04:46:22;;;;;;;38.15;16.80;;;18.00;99.90;;;17.40;100.00;96743.13;5053242;28;20449;-71
2022/06/24 04:48:49;;;;;;;35.88;17.33;;;18.00;99.90;;;17.47;100.00;96736.50;5048661;28;20497;-72
2022/06/24 04:51:16;;;;;;;34.35;16.45;;;18.10;99.90;;;17.47;100.00;96737.31;5049263;28;20408;-72
2022/06/24 04:53:42;;;;;;;32.88;16.58;;;18.10;99.90;;;17.54;100.00;96729.59;5055890;28;20455;-72
2022/06/24 04:56:08;;;;;;;32.92;16.58;;;18.10;99.90;;;17.58;100.00;96735.16;5059003;28;20399;-71
2022/06/24 04:58:34;;;;;;;32.25;17.25;;;18.20;99.90;;;17.69;100.00;96731.88;5058889;28;20500;-71
2022/06/24 05:01:00;;;;;;;35.03;17.33;;;18.30;99.90;;;17.66;100.00;96729.06;5057667;28;20523;-72
2022/06/24 05:03:26;;;;;;;31.70;15.67;;;18.30;99.90;;;17.64;100.00;96729.34;5059501;28;20396;-71
2022/06/24 05:05:53;;;;;;;30.60;16.45;;;18.20;99.90;;;17.72;100.00;96727.81;5059006;28;20409;-72
2022/06/24 05:08:19;;;;;;;30.85;16.27;;;18.30;99.90;;;17.77;100.00;96733.78;5057372;28;20416;-71
2022/06/24 05:10:45;;;;;;;32.38;16.00;;;18.40;99.90;;;17.85;100.00;96736.78;5059374;28;20900;-71
2022/06/24 05:13:10;;;;;;;29.87;15.70;;;18.40;99.90;;;17.92;100.00;96731.75;5060808;28;20424;-73
2022/06/24 05:15:36;;;;;;;32.30;16.23;;;18.50;99.90;;;17.95;100.00;96731.94;5061779;28;20402;-73
2022/06/24 05:18:03;;;;;;;32.70;16.47;;;18.60;99.90;;;18.03;100.00;96735.72;5063090;28;20826;-73
2022/06/24 05:20:29;;;;;;;32.30;16.30;;;18.60;99.90;;;18.04;100.00;96735.38;5059361;28;20405;-72
2022/06/24 05:22:56;;;;;;;28.00;15.93;;;18.60;99.90;;;18.12;100.00;96726.56;5072924;28;20449;-71
2022/06/24 05:25:22;;;;;;;29.85;15.75;;;18.70;99.90;;;18.19;100.00;96718.84;5072849;28;20499;-73
2022/06/24 05:27:48;;;;;;;30.30;15.90;;;18.80;99.90;;;18.19;100.00;96712.72;5072587;28;20410;-73
2022/06/24 05:30:14;;;;;;;30.33;15.80;;;18.80;99.90;;;18.32;100.00;96710.97;5057773;28;20397;-72
2022/06/24 05:32:40;;;;;;;33.28;14.98;;;18.90;99.90;;;18.29;100.00;96711.59;5052767;28;20485;-73
2022/06/24 05:35:07;;;;;;;28.33;14.48;;;18.90;99.90;;;18.35;100.00;96715.66;5052585;28;20413;-72
2022/06/24 05:37:33;;;;;;;32.22;14.35;;;18.90;99.90;;;18.28;100.00;96726.09;5052637;28;20409;-73
2022/06/24 05:40:01;;;;;;;27.27;13.93;;;18.90;99.90;;;18.40;100.00;96712.84;5052210;28;20841;-72
2022/06/24 05:42:27;;;;;;;27.17;13.68;;;18.90;99.90;;;18.39;100.00;96714.75;5052386;28;20489;-71
2022/06/24 05:44:53;;;;;;;25.38;13.80;;;19.00;99.90;;;18.48;100.00;96712.06;5052719;28;20398;-74
2022/06/24 05:47:19;;;;;;;25.27;11.88;;;19.00;99.90;;;18.45;100.00;96702.75;5052786;28;20505;-73
2022/06/24 05:49:44;;;;;;;24.83;12.50;;;19.00;99.90;;;18.58;100.00;96708.25;5051664;28;20542;-72
2022/06/24 05:52:10;;;;;;;24.43;12.47;;;19.20;99.90;;;18.57;100.00;96707.47;5052236;28;20398;-72
2022/06/24 05:57:22;;;;;;;20.92;11.35;;;19.20;99.90;;;18.62;100.00;96699.28;5070609;28;20809;-79
2022/06/24 05:59:48;;;;;;;21.17;11.40;;;19.20;99.90;;;18.63;100.00;96706.22;5071173;28;20908;-79
2022/06/24 06:02:14;;;;;;;20.42;10.88;;;19.20;99.90;;;18.65;100.00;96714.72;5072077;28;20400;-80
2022/06/24 06:04:40;;;;;;;19.92;10.60;;;19.20;99.90;;;18.60;100.00;96714.88;5072237;28;20400;-79
2022/06/24 06:07:06;;;;;;;22.52;9.93;;;19.20;99.90;;;18.53;100.00;96709.97;5072724;28;20410;-79
2022/06/24 06:09:33;;;;;;;18.98;10.63;;;19.20;99.90;;;18.67;100.00;96704.47;5071825;28;20396;-79
2022/06/24 06:11:59;;;;;;;19.63;10.48;;;19.20;99.90;;;18.64;100.00;96705.13;5072151;28;20495;-81
2022/06/24 06:14:26;;;;;;;21.73;10.33;;;19.20;99.90;;;18.70;100.00;96706.50;5072229;28;20852;-80
2022/06/24 06:16:52;;;;;;;17.55;9.88;;;19.30;99.90;;;18.80;100.00;96708.03;5072162;28;20479;-80
2022/06/24 06:19:18;;;;;;;18.38;9.13;;;19.40;99.90;;;18.73;100.00;96713.91;5071663;28;20953;-81
2022/06/24 06:21:45;;;;;;;13.77;6.97;;;19.40;99.90;;;18.59;100.00;96721.34;5071933;28;20399;-80
2022/06/24 06:24:11;;;;;;;15.80;6.53;;;19.20;99.90;;;18.63;100.00;96716.94;5070879;28;20395;-80
2022/06/24 06:26:36;;;;;;;18.63;6.70;;;19.30;99.90;;;18.74;100.00;96718.16;5071897;28;20408;-80
2022/06/24 06:29:04;;;;;;;16.42;6.30;;;19.30;99.90;;;18.72;100.00;96709.63;5070769;28;20412;-80
2022/06/24 06:31:31;;;;;;;19.10;7.25;;;19.30;99.90;;;18.89;100.00;96725.69;5071293;28;20870;-79
2022/06/24 06:33:57;;;;;;;15.77;8.02;;;19.50;99.90;;;19.02;100.00;96723.16;5082461;28;20407;-81
2022/06/24 06:36:23;;;;;;;14.73;6.53;;;19.60;99.90;;;18.96;100.00;96719.84;5078523;28;20419;-81
2022/06/24 06:38:49;;;;;;;13.00;6.40;;;19.60;99.90;;;19.11;100.00;96721.97;5188559;22;20518;-79
2022/06/24 06:41:19;;;;;;;15.98;6.63;;;19.70;99.90;;;19.24;100.00;96723.69;5279806;22;20893;-80
2022/06/24 06:43:45;;;;;;;9.13;5.32;;;19.80;99.90;;;19.11;100.00;96721.19;5081369;28;20418;-80
2022/06/24 06:48:45;;;;;;;11.13;4.95;;;19.90;99.90;;;19.34;100.00;96722.53;5060822;28;20429;-80
2022/06/24 06:51:11;;;;;;;10.75;4.60;;;19.90;99.90;;;19.50;100.00;96723.56;5059010;28;20757;-80
2022/06/24 06:53:37;;;;;;;15.00;4.30;;;20.00;99.90;;;19.31;100.00;96733.91;5051643;28;20439;-75
2022/06/24 06:56:04;;;;;;;14.60;5.05;;;20.10;99.90;;;19.56;100.00;96733.00;5051670;28;20427;-75
2022/06/24 06:58:30;;;;;;;12.70;4.60;;;20.10;99.90;;;19.67;100.00;96728.84;5049479;28;20974;-75
2022/06/24 07:00:56;;;;;;;12.00;4.80;;;20.20;99.90;;;19.76;100.00;96734.19;5051398;28;20447;-77
2022/06/24 07:03:22;;;;;;;9.70;4.03;;;20.30;99.90;;;19.77;100.00;96735.75;5049501;28;20790;-77
2022/06/24 07:05:50;;;;;;;10.88;4.20;;;20.30;99.90;;;19.73;100.00;96731.34;5051225;28;20926;-78
2022/06/24 07:08:16;;;;;;;11.63;4.90;;;20.30;99.90;;;19.83;100.00;96726.38;5051126;28;20408;-77
2022/06/24 07:10:43;;;;;;;9.18;4.53;;;20.30;99.90;;;19.96;100.00;96724.56;5050862;28;20759;-78
2022/06/24 07:13:10;;;;;;;7.20;4.10;;;20.50;99.90;;;19.96;100.00;96732.63;5052113;28;20424;-77
2022/06/24 07:15:36;;;;;;;10.20;3.75;;;20.50;99.90;;;19.67;100.00;96739.59;5054239;28;20436;-78
2022/06/24 07:18:02;;;;;;;11.00;3.65;;;20.30;99.90;;;19.59;100.00;96731.59;5053833;28;20405;-79
2022/06/24 07:20:29;;;;;;;9.38;4.03;;;20.20;99.90;;;19.77;100.00;96743.81;5051183;28;20404;-77
2022/06/24 07:22:56;;;;;;;11.38;3.83;;;20.30;99.90;;;19.82;100.00;96737.44;5053035;28;20455;-78
2022/06/24 07:25:22;;;;;;;13.35;3.38;;;20.30;99.90;;;19.83;100.00;96741.72;5052755;28;20411;-76
2022/06/24 07:27:48;;;;;;;12.38;4.03;;;20.40;99.90;;;20.10;100.00;96739.28;5050951;28;20405;-78
2022/06/24 07:30:15;;;;;;;13.82;3.42;;;20.60;99.90;;;20.16;100.00;96752.53;5050268;28;20436;-76
2022/06/24 07:32:41;;;;;;;7.35;3.90;;;20.70;99.90;;;20.32;100.00;96737.38;5051226;28;20906;-78
2022/06/24 07:35:08;;;;;;;8.98;3.28;;;20.90;99.90;;;20.24;100.00;96741.72;5050903;28;20517;-77
2022/06/24 07:37:34;;;;;;;6.90;3.25;;;20.80;99.90;;;20.27;100.00;96738.38;5051019;28;20460;-77
2022/06/24 07:40:01;;;;;;;12.02;3.55;;;20.80;99.90;;;20.25;100.00;96737.13;5050284;28;20406;-76
2022/06/24 07:42:27;;;;;;;8.30;3.30;;;20.80;99.90;;;20.22;100.00;96735.13;5050765;28;20413;-76
2022/06/24 07:44:53;;;;;;;9.40;3.08;;;20.90;99.90;;;20.31;100.00;96741.19;5050741;28;20401;-78
2022/06/24 07:47:19;;;;;;;8.88;3.08;;;20.90;99.90;;;20.25;100.00;96745.97;5050655;28;20498;-78
2022/06/24 07:49:44;;;;;;;9.85;2.70;;;20.90;99.90;;;20.13;100.00;96743.25;5049979;28;20555;-77
2022/06/24 07:52:11;;;;;;;9.70;3.05;;;20.70;99.90;;;20.09;100.00;96734.25;5050420;28;20497;-78
2022/06/24 07:54:37;;;;;;;8.50;2.95;;;20.70;99.90;;;19.92;100.00;96727.09;5050124;28;20417;-79
2022/06/24 07:57:05;;;;;;;5.30;3.47;;;20.60;99.90;;;20.14;100.00;96717.16;5050535;28;20423;-78
2022/06/24 07:59:33;;;;;;;9.38;2.90;;;20.70;99.90;;;20.08;100.00;96724.59;5049844;28;20843;-75
2022/06/24 08:02:02;;;;;;;7.27;3.03;;;20.70;99.90;;;20.14;100.00;96717.94;5050182;28;20398;-76
2022/06/24 08:04:29;;;;;;;7.20;3.00;;;20.70;99.90;;;20.22;100.00;96709.03;5050305;28;20532;-77
2022/06/24 08:06:55;;;;;;;9.10;3.22;;;20.90;99.90;;;20.34;100.00;96709.09;5050943;28;20464;-81
2022/06/24 08:09:24;;;;;;;5.00;2.80;;;20.90;99.90;;;20.48;100.00;96698.84;5050068;28;20401;-76
2022/06/24 08:11:50;;;;;;;7.05;2.97;;;21.10;99.90;;;20.58;100.00;96699.56;5051108;28;20480;-79
2022/06/24 08:14:18;;;;;;;9.38;2.70;;;21.10;99.90;;;20.57;100.00;96696.06;5050176;28;20409;-79
2022/06/24 08:16:45;;;;;;;6.50;3.00;;;21.20;99.90;;;20.88;100.00;96702.88;5050354;28;20404;-79
2022/06/24 08:19:11;;;;;;;4.32;2.50;;;21.40;99.90;;;21.13;100.00;96697.16;5049511;28;20408;-80
2022/06/24 08:21:38;;;;;;;9.00;2.70;;;21.70;99.90;;;21.16;100.00;96690.34;5049805;28;20973;-80
2022/06/24 08:24:05;;;;;;;6.72;2.13;;;21.80;99.90;;;21.02;100.00;96700.66;5050396;28;20906;-81
2022/06/24 08:26:32;;;;;;;6.57;2.53;;;21.60;99.90;;;21.30;100.00;96681.94;5050020;28;20456;-80
2022/06/24 08:28:58;;;;;;;7.00;2.60;;;21.90;99.90;;;21.71;100.00;96681.69;5049406;28;20399;-80
2022/06/24 08:31:25;;;;;;;6.00;2.20;;;22.20;99.90;;;21.77;100.00;96688.41;5049863;28;20484;-79
2022/06/24 08:33:51;;;;;;;6.43;2.10;;;22.30;99.90;;;21.93;100.00;96683.09;5049845;28;20962;-80
2022/06/24 08:36:17;;;;;;;8.57;2.25;;;22.40;99.90;;;21.96;100.00;96682.41;5049962;28;20508;-80
2022/06/24 08:38:43;;;;;;;3.80;2.22;;;22.50;99.90;;;22.32;100.00;96673.47;5048112;28;20818;-80
2022/06/24 08:41:10;;;;;;;4.65;2.40;;;22.80;99.90;;;22.45;100.00;96669.56;5049949;28;20996;-79
2022/06/24 08:43:36;;;;;;;7.00;2.50;;;22.90;99.90;;;22.39;100.00;96666.34;5049845;28;20437;-79
2022/06/24 08:46:04;;;;;;;4.28;1.77;;;22.90;99.90;;;22.26;100.00;96677.50;5049958;28;20408;-80
2022/06/24 08:48:31;;;;;;;4.47;1.90;;;22.90;99.90;;;22.38;100.00;96670.16;5051853;28;20511;-81
2022/06/24 08:50:58;;;;;;;4.75;1.95;;;22.90;99.90;;;22.29;100.00;96666.03;5053764;28;20409;-80
2022/06/24 08:53:27;;;;;;;4.20;2.40;;;22.80;99.90;;;22.20;100.00;96676.97;5054001;28;20963;-79
2022/06/24 08:55:54;;;;;;;4.43;2.08;;;22.70;99.90;;;21.96;100.00;96675.13;5053811;28;20404;-79
2022/06/24 08:58:21;;;;;;;6.23;2.00;;;22.50;99.90;;;21.73;100.00;96679.44;5053391;28;20527;-79
2022/06/24 09:00:47;;;;;;;3.92;1.70;;;22.30;99.90;;;21.58;100.00;96682.81;5053911;28;20651;-79
2022/06/24 09:03:14;;;;;;;7.60;2.30;;;22.20;99.90;;;21.60;100.00;96677.88;5053609;28;20397;-79
2022/06/24 09:05:41;;;;;;;4.00;2.50;;;22.20;99.90;;;21.50;100.00;96676.44;5049798;28;20431;-79
2022/06/24 09:08:10;;;;;;;7.45;2.40;;;22.10;99.90;;;21.37;100.00;96668.72;5052058;28;20486;-80
2022/06/24 09:10:38;;;;;;;4.70;2.53;;;22.00;99.90;;;21.63;100.00;96661.84;5053294;28;20484;-80
2022/06/24 09:13:05;;;;;;;3.58;2.13;;;22.20;99.90;;;21.84;100.00;96668.97;5053588;28;20903;-80
2022/06/24 09:15:32;;;;;;;5.40;2.03;;;22.30;99.90;;;21.76;100.00;96657.22;5054786;28;20783;-80
2022/06/24 09:17:59;;;;;;;7.25;2.20;;;22.40;99.90;;;21.97;100.00;96648.97;5053415;28;20747;-81
2022/06/24 09:20:27;;;;;;;7.03;1.90;;;22.40;99.90;;;21.88;100.00;96645.59;5051572;28;20427;-83
2022/06/24 09:23:03;;;;;;;5.00;2.30;;;22.50;99.90;;;22.14;100.00;96648.69;5052713;28;20397;-76
2022/06/24 09:25:42;;;;;;;9.53;2.50;;;22.60;99.90;;;22.05;100.00;96650.75;5052431;28;20424;-79
2022/06/24 09:28:08;;;;;;;5.47;2.30;;;22.70;99.90;;;22.47;100.00;96648.44;5038623;28;20407;-78
2022/06/24 09:30:35;;;;;;;6.05;2.13;;;22.90;99.90;;;22.69;100.00;96639.75;5039354;28;20447;-80
2022/06/24 09:33:01;;;;;;;6.40;2.30;;;23.10;99.90;;;22.82;100.00;96645.88;5051688;28;20416;-80
2022/06/24 09:35:27;;;;;;;4.30;1.90;;;23.30;99.90;;;23.12;100.00;96648.94;5052933;28;20409;-79
2022/06/24 09:37:53;;;;;;;5.53;1.97;;;23.50;99.90;;;23.24;100.00;96650.72;5053080;28;20408;-79
2022/06/24 09:40:27;;;;;;;4.70;2.20;;;23.70;99.90;;;23.44;100.00;96645.06;5052403;28;20393;-79
2022/06/24 09:42:56;;;;;;;3.58;1.90;;;23.90;99.90;;;23.69;100.00;96647.53;5052818;28;20397;-78
2022/06/24 09:45:23;;;;;;;3.35;2.00;;;24.10;99.90;;;23.88;100.00;96642.16;5052964;28;20454;-78
2022/06/24 09:47:51;;;;;;;6.88;2.50;;;24.30;99.90;;;24.05;100.00;96651.78;5052766;28;20409;-78
2022/06/24 09:50:18;;;;;;;8.35;2.60;;;24.50;99.90;;;24.06;100.00;96645.19;5052610;28;20891;-83
2022/06/24 09:52:45;;;;;;;6.30;2.47;;;24.60;99.90;;;24.49;100.00;96654.97;5047676;28;20417;-78
2022/06/24 09:55:12;;;;;;;7.85;2.50;;;24.90;99.90;;;24.66;100.00;96641.72;5052314;28;20763;-78
2022/06/24 09:57:40;;;;;;;5.03;2.60;;;25.10;99.90;;;24.76;100.00;96643.06;5052661;28;20408;-79
2022/06/24 10:02:53;;;;;;;4.75;2.20;;;25.20;99.90;;;24.75;100.00;96633.38;5051301;28;20604;-79
2022/06/24 10:05:20;;;;;;;4.85;2.40;;;25.20;99.90;;;24.60;100.00;96635.06;5052413;28;20404;-78
2022/06/24 10:07:48;;;;;;;7.90;2.50;;;25.10;99.90;;;24.64;100.00;96629.72;5052564;28;20536;-79
2022/06/24 10:10:16;;;;;;;5.00;2.00;;;25.10;99.90;;;24.32;97.67;96631.06;5051650;28;20436;-79
2022/06/24 10:12:54;;;;;;;3.20;1.83;;;24.80;99.90;;;24.47;100.00;96622.84;5052410;28;20501;-79
2022/06/24 10:15:21;;;;;;;4.93;1.90;;;24.80;99.90;;;24.32;96.43;96628.34;5052215;28;20413;-78
2022/06/24 10:17:48;;;;;;;3.80;1.67;;;24.70;99.90;;;24.23;93.62;96628.56;5052303;28;20401;-78